Danville, Iowa
Current Conditions -  °F | °C
As of 8:53 AM on Thursday 23 Oct 2014 (Local Time) from KBRL Reporting Station
Broken Clouds Broken Clouds  
Wind Chill: 51°   Ceiling: 4800
Heat Index: 51°   Visibility: 10mi
Dew Point: 43°   Wind: 13mph
Humidity: 74%   Direction: 190°S
Pressure: 30.13"   Gusts: NA
Location:  40.86°N, 91.31°W
Report Text: KBRL 231353Z AUTO 19011KT 10SM BKN048 11/06 A3013 RMK AO2 SLP203 T01060061
Loading
Personal Weather Stations






























Interactive Weather Map
Tropical Storm Tracking
New forecast layout! Learn more

10-Day Weather Forecast

Advertisements
Track Severe Weather on mobile